createdAt,value
2023-01-25T00:00:48.747Z,5.26
2023-01-25T00:03:16.516Z,5.25
2023-01-25T00:05:45.691Z,5.08
2023-01-25T00:08:13.412Z,4.97
2023-01-25T00:10:41.211Z,5.21
2023-01-25T00:13:08.914Z,5.33
2023-01-25T00:15:36.692Z,5.30
2023-01-25T00:18:04.614Z,5.13
2023-01-25T00:20:32.360Z,5.27
2023-01-25T00:23:01.423Z,5.32
2023-01-25T00:25:29.225Z,5.27
2023-01-25T00:27:56.970Z,5.38
2023-01-25T00:30:24.877Z,5.32
2023-01-25T00:32:58.926Z,5.44
2023-01-25T00:35:32.403Z,5.33
2023-01-25T00:38:03.980Z,5.16
2023-01-25T00:40:31.755Z,5.28
2023-01-25T00:43:00.748Z,5.35
2023-01-25T00:45:28.611Z,5.25
2023-01-25T00:47:57.180Z,5.09
2023-01-25T00:50:24.951Z,5.33
2023-01-25T00:52:52.671Z,5.40
2023-01-25T00:55:21.772Z,5.37
2023-01-25T00:57:49.452Z,5.48
2023-01-25T01:00:18.045Z,5.51
2023-01-25T01:02:45.744Z,5.29
2023-01-25T01:05:13.706Z,5.29
2023-01-25T01:07:41.668Z,5.19
2023-01-25T01:10:10.134Z,5.14
2023-01-25T01:12:39.186Z,5.15
2023-01-25T01:15:08.405Z,5.15
2023-01-25T01:17:36.322Z,5.18
2023-01-25T01:20:04.310Z,4.97
2023-01-25T01:22:32.009Z,4.71
2023-01-25T01:24:59.730Z,4.92
2023-01-25T01:27:27.415Z,4.92
2023-01-25T01:29:56.558Z,5.07
2023-01-25T01:32:24.627Z,4.98
2023-01-25T01:34:52.461Z,5.00
2023-01-25T01:37:20.229Z,5.15
2023-01-25T01:39:48.037Z,5.08
2023-01-25T01:42:15.771Z,5.25
2023-01-25T01:44:47.626Z,5.34
2023-01-25T01:47:22.621Z,5.33
2023-01-25T01:49:54.166Z,4.93
2023-01-25T01:52:28.124Z,5.06
2023-01-25T01:54:59.254Z,5.42
2023-01-25T01:57:31.336Z,5.42
2023-01-25T02:00:02.275Z,5.25
2023-01-25T02:02:31.437Z,4.99
2023-01-25T02:05:02.332Z,5.20
2023-01-25T02:07:35.220Z,5.16
2023-01-25T02:10:05.878Z,5.21
2023-01-25T02:12:33.802Z,5.27
2023-01-25T02:15:01.664Z,5.23
2023-01-25T02:17:33.119Z,5.28
2023-01-25T02:20:08.870Z,5.20
2023-01-25T02:22:46.074Z,5.06
2023-01-25T02:25:17.660Z,5.27
2023-01-25T02:27:50.067Z,5.44
2023-01-25T02:30:17.930Z,5.26
2023-01-25T02:32:45.809Z,5.41
2023-01-25T02:35:20.333Z,5.27
2023-01-25T02:37:48.401Z,5.33
2023-01-25T02:40:18.247Z,5.25
2023-01-25T02:42:46.491Z,5.09
2023-01-25T02:45:17.723Z,4.88
2023-01-25T02:47:45.454Z,5.26
2023-01-25T02:50:15.119Z,5.30
2023-01-25T02:52:43.724Z,5.14
2023-01-25T02:55:11.623Z,4.99
2023-01-25T02:57:40.707Z,4.68
2023-01-25T03:00:09.785Z,4.99
2023-01-25T03:02:37.901Z,4.83
2023-01-25T03:05:06.655Z,4.96
2023-01-25T03:07:34.603Z,4.77
2023-01-25T03:10:02.377Z,4.48
2023-01-25T03:12:30.180Z,4.72
2023-01-25T03:14:59.321Z,4.69
2023-01-25T03:17:27.043Z,4.96
2023-01-25T03:19:55.081Z,4.75
2023-01-25T03:22:22.763Z,4.63
2023-01-25T03:24:50.530Z,4.75
2023-01-25T03:27:18.523Z,4.82
2023-01-25T03:29:47.176Z,4.71
2023-01-25T03:32:16.392Z,4.46
2023-01-25T03:34:44.276Z,4.57
2023-01-25T03:37:11.984Z,4.94
2023-01-25T03:39:39.833Z,4.76
2023-01-25T03:42:08.003Z,4.74
2023-01-25T03:44:35.824Z,4.50
2023-01-25T03:47:03.647Z,4.79
2023-01-25T03:49:32.810Z,4.76
2023-01-25T03:52:00.588Z,4.61
2023-01-25T03:54:28.469Z,4.77
2023-01-25T03:56:56.311Z,4.62
2023-01-25T03:59:24.338Z,4.30
2023-01-25T04:01:52.473Z,4.48
2023-01-25T04:04:20.276Z,4.73
2023-01-25T04:06:49.354Z,4.88
2023-01-25T04:09:17.256Z,4.68
2023-01-25T04:11:44.997Z,4.85
2023-01-25T04:14:13.020Z,4.82
2023-01-25T04:16:40.840Z,4.89
2023-01-25T04:19:08.761Z,4.80
2023-01-25T04:21:36.495Z,4.71
2023-01-25T04:24:06.664Z,4.77
2023-01-25T04:26:34.501Z,4.74
2023-01-25T04:29:02.309Z,4.62
2023-01-25T04:31:30.129Z,4.71
2023-01-25T04:33:58.120Z,4.75
2023-01-25T04:36:25.839Z,4.73
2023-01-25T04:38:53.609Z,4.71
2023-01-25T04:41:26.820Z,4.71
2023-01-25T04:43:54.562Z,4.42
2023-01-25T04:46:22.491Z,4.47
2023-01-25T04:48:50.370Z,4.50
2023-01-25T04:51:18.143Z,4.52
2023-01-25T04:53:46.114Z,4.65
2023-01-25T04:56:14.044Z,4.33
2023-01-25T04:58:43.209Z,4.65
2023-01-25T05:01:11.223Z,4.58
2023-01-25T05:03:39.055Z,4.72
2023-01-25T05:06:07.309Z,4.57
2023-01-25T05:08:35.129Z,4.54
2023-01-25T05:11:02.956Z,4.60
2023-01-25T05:13:30.781Z,4.49
2023-01-25T05:15:59.890Z,4.47
2023-01-25T05:18:35.751Z,4.65
2023-01-25T05:21:31.014Z,4.62
2023-01-25T05:23:59.013Z,4.63
2023-01-25T05:26:44.140Z,4.75
2023-01-25T05:29:11.968Z,4.75
2023-01-25T05:31:41.219Z,4.71
2023-01-25T05:34:09.848Z,4.77
2023-01-25T05:36:37.619Z,4.78
2023-01-25T05:39:06.333Z,4.50
2023-01-25T05:41:34.222Z,4.31
2023-01-25T05:44:02.157Z,4.57
2023-01-25T05:46:29.931Z,4.51
2023-01-25T05:48:59.120Z,4.34
2023-01-25T05:51:26.820Z,4.39
2023-01-25T05:53:56.202Z,4.33
2023-01-25T05:56:24.437Z,4.33
2023-01-25T05:58:54.629Z,4.69
2023-01-25T06:01:22.943Z,4.70
2023-01-25T06:03:50.879Z,4.50
2023-01-25T06:06:20.048Z,4.42
2023-01-25T06:08:48.859Z,4.40
2023-01-25T06:11:18.642Z,4.48
2023-01-25T06:13:46.942Z,4.33
2023-01-25T06:16:14.768Z,4.56
2023-01-25T06:18:43.113Z,4.24
2023-01-25T06:21:11.449Z,4.31
2023-01-25T06:23:41.365Z,4.39
2023-01-25T06:26:12.676Z,4.61
2023-01-25T06:28:41.002Z,4.41
2023-01-25T06:31:10.226Z,4.56
2023-01-25T06:33:38.704Z,4.52
2023-01-25T06:36:08.401Z,4.81
2023-01-25T06:38:36.141Z,4.73
2023-01-25T06:41:06.897Z,4.56
2023-01-25T06:43:35.472Z,4.98
2023-01-25T06:46:04.328Z,4.89
2023-01-25T06:48:32.913Z,4.69
2023-01-25T06:51:02.649Z,4.75
2023-01-25T06:53:32.596Z,4.46
2023-01-25T06:56:01.491Z,4.65
2023-01-25T06:58:31.467Z,4.16
2023-01-25T07:01:02.351Z,4.30
2023-01-25T07:03:30.210Z,4.50
2023-01-25T07:06:02.220Z,4.30
2023-01-25T07:08:30.697Z,4.49
2023-01-25T07:10:59.578Z,4.44
2023-01-25T07:13:29.007Z,4.09
2023-01-25T07:16:00.344Z,4.50
2023-01-25T07:18:30.005Z,4.65
2023-01-25T07:21:04.289Z,4.50
2023-01-25T07:23:33.387Z,4.69
2023-01-25T07:26:01.973Z,4.53
2023-01-25T07:28:30.291Z,4.43
2023-01-25T07:31:05.821Z,4.57
2023-01-25T07:33:33.749Z,4.46
2023-01-25T07:36:01.846Z,4.14
2023-01-25T07:38:29.716Z,4.33
2023-01-25T07:40:57.602Z,3.99
2023-01-25T07:43:25.630Z,4.26
2023-01-25T07:45:54.331Z,4.53
2023-01-25T07:48:23.491Z,4.43
2023-01-25T07:51:10.378Z,4.50
2023-01-25T07:53:38.205Z,4.50
2023-01-25T07:56:06.504Z,4.69
2023-01-25T07:58:34.300Z,4.74
2023-01-25T08:01:07.627Z,4.56
2023-01-25T08:03:36.893Z,4.48
2023-01-25T08:06:06.193Z,4.63
2023-01-25T08:08:34.740Z,4.17
2023-01-25T08:11:08.035Z,4.12
2023-01-25T08:13:35.748Z,4.38
2023-01-25T08:16:03.867Z,4.29
2023-01-25T08:18:31.654Z,4.01
2023-01-25T08:21:01.571Z,4.12
2023-01-25T08:23:29.455Z,4.29
2023-01-25T08:25:57.452Z,4.28
2023-01-25T08:28:25.266Z,4.02
2023-01-25T08:30:57.452Z,4.18
2023-01-25T08:33:25.901Z,4.06
2023-01-25T08:35:57.309Z,4.36
2023-01-25T08:38:26.546Z,4.13
2023-01-25T08:40:54.362Z,4.42
2023-01-25T08:43:22.166Z,4.37
2023-01-25T08:45:58.824Z,4.31
2023-01-25T08:48:26.542Z,4.04
2023-01-25T08:50:54.554Z,4.02
2023-01-25T08:53:22.902Z,3.99
2023-01-25T08:55:52.062Z,4.14
2023-01-25T08:58:22.273Z,4.22
2023-01-25T09:00:50.474Z,4.09
2023-01-25T09:03:19.095Z,3.82
2023-01-25T09:05:47.792Z,4.05
2023-01-25T09:08:15.637Z,3.83
2023-01-25T09:10:43.380Z,3.78
2023-01-25T09:13:12.913Z,3.93
2023-01-25T09:15:40.952Z,3.99
2023-01-25T09:18:09.955Z,3.49
2023-01-25T09:20:40.426Z,3.64
2023-01-25T09:23:08.417Z,3.89
2023-01-25T09:25:36.446Z,4.10
2023-01-25T09:28:11.117Z,3.83
2023-01-25T09:30:48.456Z,3.90
2023-01-25T09:33:17.666Z,3.72
2023-01-25T09:35:49.537Z,4.08
2023-01-25T09:38:17.374Z,4.18
2023-01-25T09:40:56.347Z,3.71
2023-01-25T09:43:34.158Z,3.80
2023-01-25T09:46:14.262Z,3.69
2023-01-25T09:48:56.483Z,4.05
2023-01-25T09:51:59.268Z,4.01
2023-01-25T09:54:29.932Z,4.08
2023-01-25T09:57:00.300Z,3.87
2023-01-25T09:59:31.525Z,3.87
2023-01-25T10:02:04.248Z,4.08
2023-01-25T10:04:38.917Z,3.91
2023-01-25T10:07:21.993Z,3.77
2023-01-25T10:09:58.802Z,3.90
2023-01-25T10:12:28.824Z,3.75
2023-01-25T10:14:56.623Z,4.14
2023-01-25T10:17:32.027Z,4.06
2023-01-25T10:20:14.664Z,3.99
2023-01-25T10:22:47.877Z,3.50
2023-01-25T10:25:30.382Z,3.78
2023-01-25T10:28:15.939Z,3.88
2023-01-25T10:30:53.984Z,4.09
2023-01-25T10:33:23.241Z,4.17
2023-01-25T10:35:51.610Z,4.05
2023-01-25T10:38:25.795Z,3.82
2023-01-25T10:40:58.355Z,4.04
2023-01-25T10:43:26.126Z,4.21
2023-01-25T10:45:54.072Z,4.35
2023-01-25T10:48:25.839Z,4.53
2023-01-25T10:50:55.801Z,4.68
2023-01-25T10:53:27.543Z,4.40
2023-01-25T10:56:19.501Z,4.79
2023-01-25T10:58:48.910Z,4.41
2023-01-25T11:01:28.382Z,4.33
2023-01-25T11:03:58.349Z,4.75
2023-01-25T11:06:35.325Z,4.32
2023-01-25T11:09:03.766Z,4.42
2023-01-25T11:11:40.459Z,4.54
2023-01-25T11:14:18.255Z,4.42
2023-01-25T11:16:48.456Z,4.65
2023-01-25T11:19:34.801Z,4.42
2023-01-25T11:22:04.484Z,4.67
2023-01-25T11:24:34.485Z,4.59
2023-01-25T11:27:19.723Z,4.47
2023-01-25T11:29:47.797Z,4.67
2023-01-25T11:32:22.462Z,4.89
2023-01-25T11:34:52.363Z,5.21
2023-01-25T11:37:40.372Z,4.75
2023-01-25T11:40:17.791Z,4.77
2023-01-25T11:43:03.577Z,4.80
2023-01-25T11:46:11.447Z,4.43
2023-01-25T11:48:56.919Z,5.03
2023-01-25T11:51:30.449Z,5.04
2023-01-25T11:54:05.738Z,5.22
2023-01-25T11:56:47.656Z,5.16
2023-01-25T11:59:32.213Z,5.11
2023-01-25T12:02:15.880Z,4.94
2023-01-25T12:05:09.698Z,5.19
2023-01-25T12:07:52.386Z,4.91
2023-01-25T12:10:31.853Z,5.26
2023-01-25T12:13:07.109Z,5.23
2023-01-25T12:15:52.829Z,5.38
2023-01-25T12:19:02.223Z,5.22
2023-01-25T12:21:43.842Z,4.89
2023-01-25T12:24:36.935Z,5.05
2023-01-25T12:27:15.379Z,4.81
2023-01-25T12:29:48.906Z,4.93
2023-01-25T12:32:20.422Z,4.91
2023-01-25T12:34:52.285Z,5.21
2023-01-25T12:37:25.732Z,5.27
2023-01-25T12:39:59.562Z,5.26
2023-01-25T12:42:32.573Z,5.06
2023-01-25T12:45:05.225Z,5.37
2023-01-25T12:47:39.144Z,5.54
2023-01-25T12:50:17.033Z,5.49
2023-01-25T12:52:49.677Z,5.46
2023-01-25T12:55:19.933Z,5.37
2023-01-25T12:57:57.076Z,5.53
2023-01-25T13:00:32.816Z,5.53
2023-01-25T13:03:09.159Z,5.51
2023-01-25T13:05:47.213Z,5.23
2023-01-25T13:08:33.008Z,5.71
2023-01-25T13:11:11.064Z,6.00
2023-01-25T13:13:38.932Z,5.72
2023-01-25T13:16:36.196Z,5.73
2023-01-25T13:19:04.459Z,5.96
2023-01-25T13:21:46.120Z,6.01
2023-01-25T13:24:23.930Z,6.33
2023-01-25T13:27:05.149Z,6.25
2023-01-25T13:30:00.548Z,6.43
2023-01-25T13:33:06.299Z,6.28
2023-01-25T13:35:39.230Z,6.26
2023-01-25T13:38:29.243Z,5.79
2023-01-25T13:41:18.442Z,5.66
2023-01-25T13:44:16.651Z,6.01
2023-01-25T13:46:44.495Z,5.89
2023-01-25T13:49:22.406Z,5.79
2023-01-25T13:51:50.217Z,5.74
2023-01-25T13:54:18.380Z,5.70
2023-01-25T13:56:46.497Z,5.85
2023-01-25T13:59:27.225Z,5.66
2023-01-25T14:01:55.704Z,5.91
2023-01-25T14:04:23.837Z,5.91
2023-01-25T14:06:58.040Z,5.87
2023-01-25T14:09:26.201Z,5.80
2023-01-25T14:11:56.701Z,5.85
2023-01-25T14:14:29.794Z,5.84
2023-01-25T14:17:14.064Z,5.77
2023-01-25T14:19:44.449Z,5.63
2023-01-25T14:22:25.193Z,5.68
2023-01-25T14:25:08.405Z,5.85
2023-01-25T14:27:37.341Z,6.07
2023-01-25T14:30:07.823Z,6.38
2023-01-25T14:32:36.946Z,6.49
2023-01-25T14:35:54.290Z,6.48
2023-01-25T14:38:29.333Z,6.26
2023-01-25T14:41:01.820Z,6.48
2023-01-25T14:43:29.772Z,6.45
2023-01-25T14:45:59.214Z,6.65
2023-01-25T14:48:37.877Z,6.68
2023-01-25T14:51:12.793Z,6.71
2023-01-25T14:53:43.795Z,6.91
2023-01-25T14:56:28.784Z,6.69
2023-01-25T14:59:00.056Z,6.61
2023-01-25T15:01:34.203Z,6.59
2023-01-25T15:04:02.172Z,6.69
2023-01-25T15:06:29.981Z,6.41
2023-01-25T15:08:57.782Z,6.66
2023-01-25T15:11:38.816Z,6.61
2023-01-25T15:14:19.080Z,6.69
2023-01-25T15:16:48.306Z,6.72
2023-01-25T15:19:30.043Z,6.64
2023-01-25T15:21:59.832Z,6.52
2023-01-25T15:24:28.925Z,6.76
2023-01-25T15:26:56.778Z,6.87
2023-01-25T15:29:27.480Z,6.50
2023-01-25T15:31:57.482Z,6.30
2023-01-25T15:34:29.525Z,6.32
2023-01-25T15:36:57.383Z,6.55
2023-01-25T15:39:25.206Z,6.49
2023-01-25T15:41:52.983Z,6.47
2023-01-25T15:44:21.052Z,6.34
2023-01-25T15:46:51.925Z,6.08
2023-01-25T15:49:26.802Z,6.14
2023-01-25T15:51:55.072Z,6.30
2023-01-25T15:54:24.202Z,6.34
2023-01-25T15:56:55.935Z,6.84
2023-01-25T15:59:23.826Z,6.68
2023-01-25T16:01:51.584Z,6.56
2023-01-25T16:04:19.371Z,6.52
2023-01-25T16:06:50.460Z,6.46
2023-01-25T16:09:20.352Z,6.41
2023-01-25T16:11:50.651Z,6.45
2023-01-25T16:14:19.184Z,6.69
2023-01-25T16:16:49.696Z,6.61
2023-01-25T16:19:19.309Z,6.67
2023-01-25T16:21:48.515Z,6.75
2023-01-25T16:24:16.962Z,6.59
2023-01-25T16:26:46.885Z,6.77
2023-01-25T16:29:15.024Z,6.65
2023-01-25T16:31:42.890Z,6.90
2023-01-25T16:34:10.746Z,6.94
2023-01-25T16:36:39.653Z,6.76
2023-01-25T16:39:16.174Z,6.88
2023-01-25T16:41:43.910Z,7.08
2023-01-25T16:44:11.745Z,6.93
2023-01-25T16:46:39.468Z,6.85
2023-01-25T16:49:09.918Z,7.21
2023-01-25T16:51:38.576Z,7.12
2023-01-25T16:54:06.714Z,6.95
2023-01-25T16:56:35.871Z,7.21
2023-01-25T16:59:05.892Z,7.13
2023-01-25T17:01:33.937Z,7.10
2023-01-25T17:04:02.067Z,7.10
2023-01-25T17:06:34.264Z,7.17
2023-01-25T17:09:12.731Z,7.26
2023-01-25T17:11:49.948Z,7.11
2023-01-25T17:14:19.800Z,7.09
2023-01-25T17:16:50.345Z,7.32
2023-01-25T17:19:18.772Z,7.51
2023-01-25T17:21:47.363Z,7.46
2023-01-25T17:24:17.889Z,7.33
2023-01-25T17:26:45.771Z,7.37
2023-01-25T17:29:14.956Z,7.47
2023-01-25T17:31:44.367Z,7.40
2023-01-25T17:34:15.951Z,7.40
2023-01-25T17:36:44.573Z,7.35
2023-01-25T17:39:15.366Z,7.45
2023-01-25T17:41:43.237Z,7.48
2023-01-25T17:44:11.105Z,7.37
2023-01-25T17:46:40.365Z,7.53
2023-01-25T17:49:11.982Z,7.59
2023-01-25T17:51:39.879Z,7.45
2023-01-25T17:54:08.159Z,7.41
2023-01-25T17:56:38.504Z,7.32
2023-01-25T17:59:08.820Z,7.18
2023-01-25T18:01:37.258Z,7.18
2023-01-25T18:04:08.263Z,7.06
2023-01-25T18:06:36.040Z,7.03
2023-01-25T18:09:06.025Z,7.04
2023-01-25T18:11:36.713Z,7.09
2023-01-25T18:14:08.138Z,7.11
2023-01-25T18:16:38.611Z,7.15
2023-01-25T18:19:08.567Z,7.32
2023-01-25T18:21:37.084Z,7.34
2023-01-25T18:24:07.283Z,7.29
2023-01-25T18:26:37.043Z,7.29
2023-01-25T18:29:32.351Z,7.41
2023-01-25T18:32:00.713Z,7.46
2023-01-25T18:34:29.845Z,7.20
2023-01-25T18:36:59.287Z,7.31
2023-01-25T18:39:27.310Z,7.39
2023-01-25T18:41:55.558Z,7.34
2023-01-25T18:44:23.393Z,7.23
2023-01-25T18:46:51.089Z,7.25
2023-01-25T18:49:18.830Z,7.16
2023-01-25T18:52:05.226Z,7.11
2023-01-25T18:54:36.279Z,7.24
2023-01-25T18:57:06.746Z,7.39
2023-01-25T18:59:34.630Z,7.51
2023-01-25T19:02:02.517Z,7.33
2023-01-25T19:04:30.551Z,7.44
2023-01-25T19:07:01.444Z,7.50
2023-01-25T19:09:30.193Z,7.45
2023-01-25T19:11:58.173Z,7.39
2023-01-25T19:14:26.723Z,7.40
2023-01-25T19:16:54.471Z,7.29
2023-01-25T19:19:23.541Z,7.40
2023-01-25T19:21:51.288Z,7.36
2023-01-25T19:24:21.689Z,7.57
2023-01-25T19:26:49.525Z,7.50
2023-01-25T19:29:17.359Z,7.35
2023-01-25T19:31:45.125Z,7.43
2023-01-25T19:34:12.990Z,7.52
2023-01-25T19:36:45.732Z,7.56
2023-01-25T19:39:14.436Z,7.49
2023-01-25T19:41:43.509Z,7.39
2023-01-25T19:44:13.688Z,7.41
2023-01-25T19:46:41.986Z,7.41
2023-01-25T19:49:13.155Z,7.38
2023-01-25T19:51:44.363Z,7.34
2023-01-25T19:54:15.818Z,7.43
2023-01-25T19:56:46.813Z,7.30
2023-01-25T19:59:17.098Z,7.26
2023-01-25T20:01:46.240Z,7.41
2023-01-25T20:04:16.208Z,7.51
2023-01-25T20:06:44.465Z,7.58
2023-01-25T20:09:13.451Z,7.59
2023-01-25T20:11:41.627Z,7.46
2023-01-25T20:14:13.193Z,7.33
2023-01-25T20:16:41.086Z,7.05
2023-01-25T20:19:11.821Z,7.05
2023-01-25T20:21:39.974Z,7.11
2023-01-25T20:24:10.170Z,7.15
2023-01-25T20:26:39.726Z,7.18
2023-01-25T20:29:08.736Z,7.22
2023-01-25T20:31:39.481Z,7.30
2023-01-25T20:34:09.690Z,7.33
2023-01-25T20:36:37.686Z,7.39
2023-01-25T20:39:06.753Z,7.41
2023-01-25T20:41:34.714Z,7.39
2023-01-25T20:44:08.369Z,7.49
2023-01-25T20:46:39.021Z,7.50
2023-01-25T20:49:09.209Z,7.53
2023-01-25T20:51:37.211Z,7.56
2023-01-25T20:54:05.029Z,7.48
2023-01-25T20:56:33.318Z,7.44
2023-01-25T20:59:01.087Z,7.44
2023-01-25T21:01:33.410Z,7.33
2023-01-25T21:04:02.592Z,7.23
2023-01-25T21:06:30.586Z,7.22
2023-01-25T21:08:59.287Z,7.25
2023-01-25T21:11:27.153Z,7.25
2023-01-25T21:13:54.968Z,7.33
2023-01-25T21:16:24.073Z,7.32
2023-01-25T21:18:54.476Z,7.37
2023-01-25T21:21:27.673Z,7.35
2023-01-25T21:23:57.650Z,7.42
2023-01-25T21:26:27.453Z,7.51
2023-01-25T21:28:56.180Z,7.52
2023-01-25T21:31:26.017Z,7.61
2023-01-25T21:33:55.026Z,7.63
2023-01-25T21:36:24.242Z,7.72
2023-01-25T21:38:53.646Z,7.68
2023-01-25T21:41:24.478Z,7.54
2023-01-25T21:44:11.760Z,7.38
2023-01-25T21:46:39.920Z,7.46
2023-01-25T21:49:27.254Z,7.34
2023-01-25T21:51:59.238Z,7.39
2023-01-25T21:54:28.735Z,7.43
2023-01-25T21:56:57.659Z,7.40
2023-01-25T21:59:25.931Z,7.40
2023-01-25T22:01:54.679Z,7.39
2023-01-25T22:04:24.045Z,7.38
2023-01-25T22:06:54.294Z,7.43
2023-01-25T22:09:23.996Z,7.47
2023-01-25T22:11:51.794Z,7.56
2023-01-25T22:14:23.052Z,7.59
2023-01-25T22:16:50.922Z,7.59
2023-01-25T22:19:18.861Z,7.41
2023-01-25T22:21:46.816Z,7.45
2023-01-25T22:24:14.829Z,7.47
2023-01-25T22:26:51.447Z,7.43
2023-01-25T22:29:19.279Z,7.29
2023-01-25T22:31:47.110Z,7.21
2023-01-25T22:34:14.883Z,7.13
2023-01-25T22:36:43.016Z,7.09
2023-01-25T22:39:13.885Z,7.10
2023-01-25T22:41:42.723Z,7.24
2023-01-25T22:44:14.426Z,7.30
2023-01-25T22:46:42.187Z,7.32
2023-01-25T22:49:09.922Z,7.28
2023-01-25T22:51:37.772Z,7.22
2023-01-25T22:54:06.059Z,7.36
2023-01-25T22:56:35.000Z,7.42
2023-01-25T22:59:02.924Z,7.50
2023-01-25T23:01:33.953Z,7.56
2023-01-25T23:04:02.518Z,7.58
2023-01-25T23:06:33.153Z,7.49
2023-01-25T23:09:04.118Z,7.38
2023-01-25T23:11:35.681Z,7.26
2023-01-25T23:14:21.623Z,7.08
2023-01-25T23:16:50.684Z,7.10
2023-01-25T23:19:17.537Z,7.13
2023-01-25T23:21:45.673Z,7.17
2023-01-25T23:24:13.646Z,7.22
2023-01-25T23:26:46.470Z,7.08
2023-01-25T23:29:14.916Z,6.90
2023-01-25T23:31:43.031Z,6.92
2023-01-25T23:34:12.921Z,7.21
2023-01-25T23:36:42.332Z,7.38
2023-01-25T23:39:12.944Z,7.48
2023-01-25T23:41:40.800Z,7.49
2023-01-25T23:44:09.098Z,7.47
2023-01-25T23:46:37.010Z,7.40
2023-01-25T23:49:04.941Z,7.35
2023-01-25T23:51:34.071Z,7.22
2023-01-25T23:54:01.881Z,7.08
2023-01-25T23:56:29.635Z,6.99
2023-01-25T23:58:57.334Z,7.00
